sensor_id;sensor_type;location;lat;lon;timestamp;temperature;humidity
38480;DHT22;62333;51.980;5.934;2023-07-13T00:00:27;19.90;68.10
38480;DHT22;62333;51.980;5.934;2023-07-13T00:02:53;19.90;68.00
38480;DHT22;62333;51.980;5.934;2023-07-13T00:05:22;19.90;68.10
38480;DHT22;62333;51.980;5.934;2023-07-13T00:07:49;19.90;68.10
38480;DHT22;62333;51.980;5.934;2023-07-13T00:10:16;19.80;68.00
38480;DHT22;62333;51.980;5.934;2023-07-13T00:12:43;19.80;68.00
38480;DHT22;62333;51.980;5.934;2023-07-13T00:15:21;19.80;68.10
38480;DHT22;62333;51.980;5.934;2023-07-13T00:17:53;19.90;68.10
38480;DHT22;62333;51.980;5.934;2023-07-13T00:20:21;19.80;68.10
38480;DHT22;62333;51.980;5.934;2023-07-13T00:22:51;19.80;68.20
38480;DHT22;62333;51.980;5.934;2023-07-13T00:25:22;19.80;68.20
38480;DHT22;62333;51.980;5.934;2023-07-13T00:27:49;19.80;68.40
38480;DHT22;62333;51.980;5.934;2023-07-13T00:30:15;19.70;68.50
38480;DHT22;62333;51.980;5.934;2023-07-13T00:32:41;19.70;68.60
38480;DHT22;62333;51.980;5.934;2023-07-13T00:35:07;19.60;68.70
38480;DHT22;62333;51.980;5.934;2023-07-13T00:37:34;19.70;68.70
38480;DHT22;62333;51.980;5.934;2023-07-13T00:40:04;19.60;68.70
38480;DHT22;62333;51.980;5.934;2023-07-13T00:42:31;19.60;68.90
38480;DHT22;62333;51.980;5.934;2023-07-13T00:47:37;19.50;69.10
38480;DHT22;62333;51.980;5.934;2023-07-13T00:50:06;19.50;69.10
38480;DHT22;62333;51.980;5.934;2023-07-13T00:52:33;19.40;69.20
38480;DHT22;62333;51.980;5.934;2023-07-13T00:55:00;19.40;69.30
38480;DHT22;62333;51.980;5.934;2023-07-13T00:57:27;19.40;69.50
38480;DHT22;62333;51.980;5.934;2023-07-13T00:59:57;19.30;69.60
38480;DHT22;62333;51.980;5.934;2023-07-13T01:02:24;19.20;69.90
38480;DHT22;62333;51.980;5.934;2023-07-13T01:04:50;19.10;70.10
38480;DHT22;62333;51.980;5.934;2023-07-13T01:07:16;19.10;70.20
38480;DHT22;62333;51.980;5.934;2023-07-13T01:09:44;19.10;70.30
38480;DHT22;62333;51.980;5.934;2023-07-13T01:12:10;19.00;70.30
38480;DHT22;62333;51.980;5.934;2023-07-13T01:14:36;19.00;70.50
38480;DHT22;62333;51.980;5.934;2023-07-13T01:17:02;19.00;70.80
38480;DHT22;62333;51.980;5.934;2023-07-13T01:19:40;18.90;70.80
38480;DHT22;62333;51.980;5.934;2023-07-13T01:22:16;18.90;71.00
38480;DHT22;62333;51.980;5.934;2023-07-13T01:24:45;18.90;71.70
38480;DHT22;62333;51.980;5.934;2023-07-13T01:27:24;18.90;71.20
38480;DHT22;62333;51.980;5.934;2023-07-13T01:29:51;18.80;71.40
38480;DHT22;62333;51.980;5.934;2023-07-13T01:32:22;18.70;71.50
38480;DHT22;62333;51.980;5.934;2023-07-13T01:34:49;18.70;71.60
38480;DHT22;62333;51.980;5.934;2023-07-13T01:37:15;18.70;71.60
38480;DHT22;62333;51.980;5.934;2023-07-13T01:39:41;18.70;71.60
38480;DHT22;62333;51.980;5.934;2023-07-13T01:42:07;18.70;71.80
38480;DHT22;62333;51.980;5.934;2023-07-13T01:44:33;18.70;71.90
38480;DHT22;62333;51.980;5.934;2023-07-13T01:47:01;18.60;71.80
38480;DHT22;62333;51.980;5.934;2023-07-13T01:49:26;18.70;72.20
38480;DHT22;62333;51.980;5.934;2023-07-13T01:51:52;18.60;72.40
38480;DHT22;62333;51.980;5.934;2023-07-13T01:54:18;18.60;72.50
38480;DHT22;62333;51.980;5.934;2023-07-13T01:56:43;18.50;72.90
38480;DHT22;62333;51.980;5.934;2023-07-13T01:59:09;18.50;73.00
38480;DHT22;62333;51.980;5.934;2023-07-13T02:01:35;18.40;73.40
38480;DHT22;62333;51.980;5.934;2023-07-13T02:04:01;18.50;73.30
38480;DHT22;62333;51.980;5.934;2023-07-13T02:06:26;18.40;73.30
38480;DHT22;62333;51.980;5.934;2023-07-13T02:08:52;18.40;73.30
38480;DHT22;62333;51.980;5.934;2023-07-13T02:11:18;18.40;73.30
38480;DHT22;62333;51.980;5.934;2023-07-13T02:13:43;18.30;73.80
38480;DHT22;62333;51.980;5.934;2023-07-13T02:16:09;18.30;74.20
38480;DHT22;62333;51.980;5.934;2023-07-13T02:18:35;18.20;74.50
38480;DHT22;62333;51.980;5.934;2023-07-13T02:21:01;18.20;74.80
38480;DHT22;62333;51.980;5.934;2023-07-13T02:23:28;18.20;74.80
38480;DHT22;62333;51.980;5.934;2023-07-13T02:25:57;18.10;74.90
38480;DHT22;62333;51.980;5.934;2023-07-13T02:28:23;18.20;75.00
38480;DHT22;62333;51.980;5.934;2023-07-13T02:30:48;18.20;75.00
38480;DHT22;62333;51.980;5.934;2023-07-13T02:33:14;18.10;75.20
38480;DHT22;62333;51.980;5.934;2023-07-13T02:35:40;18.10;75.30
38480;DHT22;62333;51.980;5.934;2023-07-13T02:38:06;18.10;75.40
38480;DHT22;62333;51.980;5.934;2023-07-13T02:40:32;18.10;76.10
38480;DHT22;62333;51.980;5.934;2023-07-13T02:43:01;18.10;75.90
38480;DHT22;62333;51.980;5.934;2023-07-13T02:45:27;18.10;76.10
38480;DHT22;62333;51.980;5.934;2023-07-13T02:47:54;18.10;76.10
38480;DHT22;62333;51.980;5.934;2023-07-13T02:50:20;18.10;76.10
38480;DHT22;62333;51.980;5.934;2023-07-13T02:52:46;18.10;76.20
38480;DHT22;62333;51.980;5.934;2023-07-13T02:55:12;18.10;76.40
38480;DHT22;62333;51.980;5.934;2023-07-13T02:57:37;18.10;76.60
38480;DHT22;62333;51.980;5.934;2023-07-13T03:00:04;18.00;76.60
38480;DHT22;62333;51.980;5.934;2023-07-13T03:02:33;18.00;76.70
38480;DHT22;62333;51.980;5.934;2023-07-13T03:05:00;18.00;76.90
38480;DHT22;62333;51.980;5.934;2023-07-13T03:07:26;18.00;77.20
38480;DHT22;62333;51.980;5.934;2023-07-13T03:09:58;17.90;77.50
38480;DHT22;62333;51.980;5.934;2023-07-13T03:12:25;17.90;77.50
38480;DHT22;62333;51.980;5.934;2023-07-13T03:14:50;18.00;77.90
38480;DHT22;62333;51.980;5.934;2023-07-13T03:17:16;17.90;77.90
38480;DHT22;62333;51.980;5.934;2023-07-13T03:19:42;17.90;77.90
38480;DHT22;62333;51.980;5.934;2023-07-13T03:22:09;17.90;78.10
38480;DHT22;62333;51.980;5.934;2023-07-13T03:24:35;17.90;78.30
38480;DHT22;62333;51.980;5.934;2023-07-13T03:27:03;17.90;78.50
38480;DHT22;62333;51.980;5.934;2023-07-13T03:29:29;17.80;78.70
38480;DHT22;62333;51.980;5.934;2023-07-13T03:31:54;17.80;78.80
38480;DHT22;62333;51.980;5.934;2023-07-13T03:34:20;17.90;79.10
38480;DHT22;62333;51.980;5.934;2023-07-13T03:36:46;17.70;79.30
38480;DHT22;62333;51.980;5.934;2023-07-13T03:39:11;17.70;79.30
38480;DHT22;62333;51.980;5.934;2023-07-13T03:41:37;17.70;79.40
38480;DHT22;62333;51.980;5.934;2023-07-13T03:44:03;17.70;79.40
38480;DHT22;62333;51.980;5.934;2023-07-13T03:46:29;17.70;79.60
38480;DHT22;62333;51.980;5.934;2023-07-13T03:48:55;17.70;79.70
38480;DHT22;62333;51.980;5.934;2023-07-13T03:51:21;17.70;79.90
38480;DHT22;62333;51.980;5.934;2023-07-13T03:53:47;17.70;79.80
38480;DHT22;62333;51.980;5.934;2023-07-13T03:56:14;17.70;79.80
38480;DHT22;62333;51.980;5.934;2023-07-13T03:58:42;17.60;80.30
38480;DHT22;62333;51.980;5.934;2023-07-13T04:01:10;17.60;80.10
38480;DHT22;62333;51.980;5.934;2023-07-13T04:03:36;17.60;80.20
38480;DHT22;62333;51.980;5.934;2023-07-13T04:06:04;17.60;80.10
38480;DHT22;62333;51.980;5.934;2023-07-13T04:08:35;17.70;80.20
38480;DHT22;62333;51.980;5.934;2023-07-13T04:11:03;17.70;80.20
38480;DHT22;62333;51.980;5.934;2023-07-13T04:13:29;17.70;80.70
38480;DHT22;62333;51.980;5.934;2023-07-13T04:15:55;17.70;80.90
38480;DHT22;62333;51.980;5.934;2023-07-13T04:18:21;17.70;80.90
38480;DHT22;62333;51.980;5.934;2023-07-13T04:20:47;17.70;81.10
38480;DHT22;62333;51.980;5.934;2023-07-13T04:23:13;17.70;81.20
38480;DHT22;62333;51.980;5.934;2023-07-13T04:25:42;17.70;81.30
38480;DHT22;62333;51.980;5.934;2023-07-13T04:28:08;17.70;81.60
38480;DHT22;62333;51.980;5.934;2023-07-13T04:30:34;17.70;81.80
38480;DHT22;62333;51.980;5.934;2023-07-13T04:33:00;17.70;81.80
38480;DHT22;62333;51.980;5.934;2023-07-13T04:35:25;17.70;81.90
38480;DHT22;62333;51.980;5.934;2023-07-13T04:37:51;17.80;81.90
38480;DHT22;62333;51.980;5.934;2023-07-13T04:40:17;17.80;82.10
38480;DHT22;62333;51.980;5.934;2023-07-13T04:42:44;17.80;82.20
38480;DHT22;62333;51.980;5.934;2023-07-13T04:45:10;17.80;82.40
38480;DHT22;62333;51.980;5.934;2023-07-13T04:47:36;17.80;82.60
38480;DHT22;62333;51.980;5.934;2023-07-13T04:50:02;17.90;82.60
38480;DHT22;62333;51.980;5.934;2023-07-13T04:52:28;17.90;82.50
38480;DHT22;62333;51.980;5.934;2023-07-13T04:54:53;17.90;82.60
38480;DHT22;62333;51.980;5.934;2023-07-13T04:57:19;18.00;82.60
38480;DHT22;62333;51.980;5.934;2023-07-13T04:59:45;17.90;82.60
38480;DHT22;62333;51.980;5.934;2023-07-13T05:02:11;17.90;82.60
38480;DHT22;62333;51.980;5.934;2023-07-13T05:04:36;17.90;82.70
38480;DHT22;62333;51.980;5.934;2023-07-13T05:07:02;17.90;82.70
38480;DHT22;62333;51.980;5.934;2023-07-13T05:09:28;18.00;82.80
38480;DHT22;62333;51.980;5.934;2023-07-13T05:11:54;18.00;82.90
38480;DHT22;62333;51.980;5.934;2023-07-13T05:14:19;18.00;82.90
38480;DHT22;62333;51.980;5.934;2023-07-13T05:16:45;18.00;83.10
38480;DHT22;62333;51.980;5.934;2023-07-13T05:19:12;18.10;83.20
38480;DHT22;62333;51.980;5.934;2023-07-13T05:21:37;18.10;83.10
38480;DHT22;62333;51.980;5.934;2023-07-13T05:24:03;18.10;83.30
38480;DHT22;62333;51.980;5.934;2023-07-13T05:26:29;18.10;83.30
38480;DHT22;62333;51.980;5.934;2023-07-13T05:28:54;18.20;83.30
38480;DHT22;62333;51.980;5.934;2023-07-13T05:31:20;18.20;83.20
38480;DHT22;62333;51.980;5.934;2023-07-13T05:33:46;18.20;83.20
38480;DHT22;62333;51.980;5.934;2023-07-13T05:36:11;18.20;83.30
38480;DHT22;62333;51.980;5.934;2023-07-13T05:38:37;18.20;83.50
38480;DHT22;62333;51.980;5.934;2023-07-13T05:41:03;18.20;83.60
38480;DHT22;62333;51.980;5.934;2023-07-13T05:43:29;18.20;83.70
38480;DHT22;62333;51.980;5.934;2023-07-13T05:45:56;18.20;83.80
38480;DHT22;62333;51.980;5.934;2023-07-13T05:48:22;18.20;83.80
38480;DHT22;62333;51.980;5.934;2023-07-13T05:50:48;18.20;83.80
38480;DHT22;62333;51.980;5.934;2023-07-13T05:53:14;18.30;83.80
38480;DHT22;62333;51.980;5.934;2023-07-13T05:55:44;18.30;83.80
38480;DHT22;62333;51.980;5.934;2023-07-13T05:58:13;18.40;83.90
38480;DHT22;62333;51.980;5.934;2023-07-13T06:00:39;18.40;84.20
38480;DHT22;62333;51.980;5.934;2023-07-13T06:03:06;18.40;84.20
38480;DHT22;62333;51.980;5.934;2023-07-13T06:05:32;18.40;84.40
38480;DHT22;62333;51.980;5.934;2023-07-13T06:07:59;18.40;84.50
38480;DHT22;62333;51.980;5.934;2023-07-13T06:10:25;18.40;84.50
38480;DHT22;62333;51.980;5.934;2023-07-13T06:12:51;18.40;84.70
38480;DHT22;62333;51.980;5.934;2023-07-13T06:15:16;18.50;84.60
38480;DHT22;62333;51.980;5.934;2023-07-13T06:17:42;18.50;84.60
38480;DHT22;62333;51.980;5.934;2023-07-13T06:20:09;18.50;84.80
38480;DHT22;62333;51.980;5.934;2023-07-13T06:22:35;18.60;84.90
38480;DHT22;62333;51.980;5.934;2023-07-13T06:25:01;18.60;84.90
38480;DHT22;62333;51.980;5.934;2023-07-13T06:27:26;18.60;85.00
38480;DHT22;62333;51.980;5.934;2023-07-13T06:29:52;18.60;85.30
38480;DHT22;62333;51.980;5.934;2023-07-13T06:32:18;18.50;85.40
38480;DHT22;62333;51.980;5.934;2023-07-13T06:34:43;18.50;85.70
38480;DHT22;62333;51.980;5.934;2023-07-13T06:37:10;18.50;85.60
38480;DHT22;62333;51.980;5.934;2023-07-13T06:39:35;18.60;85.80
38480;DHT22;62333;51.980;5.934;2023-07-13T06:42:01;18.70;85.70
38480;DHT22;62333;51.980;5.934;2023-07-13T06:44:27;18.70;85.80
38480;DHT22;62333;51.980;5.934;2023-07-13T06:46:53;18.80;85.80
38480;DHT22;62333;51.980;5.934;2023-07-13T06:49:18;18.80;86.40
38480;DHT22;62333;51.980;5.934;2023-07-13T06:51:44;18.90;85.80
38480;DHT22;62333;51.980;5.934;2023-07-13T06:54:10;19.00;85.70
38480;DHT22;62333;51.980;5.934;2023-07-13T06:56:35;19.10;85.60
38480;DHT22;62333;51.980;5.934;2023-07-13T06:59:01;19.10;85.50
38480;DHT22;62333;51.980;5.934;2023-07-13T07:01:27;19.10;85.40
38480;DHT22;62333;51.980;5.934;2023-07-13T07:03:52;19.20;85.50
38480;DHT22;62333;51.980;5.934;2023-07-13T07:06:21;19.20;85.40
38480;DHT22;62333;51.980;5.934;2023-07-13T07:08:49;19.30;85.40
38480;DHT22;62333;51.980;5.934;2023-07-13T07:11:22;19.30;85.40
38480;DHT22;62333;51.980;5.934;2023-07-13T07:13:48;19.40;85.30
38480;DHT22;62333;51.980;5.934;2023-07-13T07:16:14;19.40;85.20
38480;DHT22;62333;51.980;5.934;2023-07-13T07:18:40;19.40;85.20
38480;DHT22;62333;51.980;5.934;2023-07-13T07:21:06;19.50;85.20
38480;DHT22;62333;51.980;5.934;2023-07-13T07:23:32;19.50;85.10
38480;DHT22;62333;51.980;5.934;2023-07-13T07:25:58;19.50;85.00
38480;DHT22;62333;51.980;5.934;2023-07-13T07:28:24;19.50;85.00
38480;DHT22;62333;51.980;5.934;2023-07-13T07:30:52;19.60;84.80
38480;DHT22;62333;51.980;5.934;2023-07-13T07:33:18;19.60;84.60
38480;DHT22;62333;51.980;5.934;2023-07-13T07:35:44;19.70;84.50
38480;DHT22;62333;51.980;5.934;2023-07-13T07:38:10;19.70;84.30
38480;DHT22;62333;51.980;5.934;2023-07-13T07:40:40;19.70;84.80
38480;DHT22;62333;51.980;5.934;2023-07-13T07:43:07;19.80;84.00
38480;DHT22;62333;51.980;5.934;2023-07-13T07:45:34;19.80;83.80
38480;DHT22;62333;51.980;5.934;2023-07-13T07:47:59;19.90;83.70
38480;DHT22;62333;51.980;5.934;2023-07-13T07:50:26;20.00;83.70
38480;DHT22;62333;51.980;5.934;2023-07-13T07:52:52;20.10;83.60
38480;DHT22;62333;51.980;5.934;2023-07-13T07:55:19;20.10;83.40
38480;DHT22;62333;51.980;5.934;2023-07-13T07:57:44;20.20;83.30
38480;DHT22;62333;51.980;5.934;2023-07-13T08:00:10;20.30;83.00
38480;DHT22;62333;51.980;5.934;2023-07-13T08:02:36;20.40;82.60
38480;DHT22;62333;51.980;5.934;2023-07-13T08:05:02;20.40;82.30
38480;DHT22;62333;51.980;5.934;2023-07-13T08:07:30;20.50;82.20
38480;DHT22;62333;51.980;5.934;2023-07-13T08:09:56;20.50;82.00
38480;DHT22;62333;51.980;5.934;2023-07-13T08:12:22;20.60;81.80
38480;DHT22;62333;51.980;5.934;2023-07-13T08:14:50;20.70;81.60
38480;DHT22;62333;51.980;5.934;2023-07-13T08:17:19;20.80;81.50
38480;DHT22;62333;51.980;5.934;2023-07-13T08:19:45;20.90;81.10
38480;DHT22;62333;51.980;5.934;2023-07-13T08:22:11;21.00;80.50
38480;DHT22;62333;51.980;5.934;2023-07-13T08:24:37;21.00;79.80
38480;DHT22;62333;51.980;5.934;2023-07-13T08:27:02;21.00;79.70
38480;DHT22;62333;51.980;5.934;2023-07-13T08:29:28;21.10;79.80
38480;DHT22;62333;51.980;5.934;2023-07-13T08:31:57;21.20;79.90
38480;DHT22;62333;51.980;5.934;2023-07-13T08:34:23;21.30;79.20
38480;DHT22;62333;51.980;5.934;2023-07-13T08:36:49;21.40;78.20
38480;DHT22;62333;51.980;5.934;2023-07-13T08:39:14;21.50;77.90
38480;DHT22;62333;51.980;5.934;2023-07-13T08:41:40;21.70;77.70
38480;DHT22;62333;51.980;5.934;2023-07-13T08:44:16;21.80;77.10
38480;DHT22;62333;51.980;5.934;2023-07-13T08:46:45;22.00;76.30
38480;DHT22;62333;51.980;5.934;2023-07-13T08:49:15;22.00;75.60
38480;DHT22;62333;51.980;5.934;2023-07-13T08:54:57;22.10;75.10
38480;DHT22;62333;51.980;5.934;2023-07-13T08:57:23;22.10;74.70
38480;DHT22;62333;51.980;5.934;2023-07-13T08:59:50;22.10;74.60
38480;DHT22;62333;51.980;5.934;2023-07-13T09:02:26;22.00;73.50
38480;DHT22;62333;51.980;5.934;2023-07-13T09:05:33;21.90;73.40
38480;DHT22;62333;51.980;5.934;2023-07-13T09:10:49;21.80;73.80
38480;DHT22;62333;51.980;5.934;2023-07-13T09:15:49;21.80;71.50
38480;DHT22;62333;51.980;5.934;2023-07-13T09:21:02;22.10;71.20
38480;DHT22;62333;51.980;5.934;2023-07-13T09:23:30;22.30;70.40
38480;DHT22;62333;51.980;5.934;2023-07-13T09:26:12;22.60;70.10
38480;DHT22;62333;51.980;5.934;2023-07-13T09:28:41;22.90;68.70
38480;DHT22;62333;51.980;5.934;2023-07-13T09:31:19;23.00;67.50
38480;DHT22;62333;51.980;5.934;2023-07-13T09:33:47;23.20;66.70
38480;DHT22;62333;51.980;5.934;2023-07-13T09:36:26;23.30;65.80
38480;DHT22;62333;51.980;5.934;2023-07-13T09:39:01;23.20;64.90
38480;DHT22;62333;51.980;5.934;2023-07-13T09:41:40;23.00;65.60
38480;DHT22;62333;51.980;5.934;2023-07-13T09:44:07;23.00;66.70
38480;DHT22;62333;51.980;5.934;2023-07-13T09:46:38;22.90;67.80
38480;DHT22;62333;51.980;5.934;2023-07-13T09:49:04;22.80;68.30
38480;DHT22;62333;51.980;5.934;2023-07-13T09:51:29;22.80;67.40
38480;DHT22;62333;51.980;5.934;2023-07-13T09:53:55;22.70;66.70
38480;DHT22;62333;51.980;5.934;2023-07-13T09:56:26;22.60;67.70
38480;DHT22;62333;51.980;5.934;2023-07-13T09:58:52;22.70;68.80
38480;DHT22;62333;51.980;5.934;2023-07-13T10:01:38;22.70;69.40
38480;DHT22;62333;51.980;5.934;2023-07-13T10:04:12;22.70;69.60
38480;DHT22;62333;51.980;5.934;2023-07-13T10:06:39;22.60;70.10
38480;DHT22;62333;51.980;5.934;2023-07-13T10:09:09;22.50;70.70
38480;DHT22;62333;51.980;5.934;2023-07-13T10:11:36;22.60;71.20
38480;DHT22;62333;51.980;5.934;2023-07-13T10:14:17;22.60;71.60
38480;DHT22;62333;51.980;5.934;2023-07-13T10:16:45;22.70;71.20
38480;DHT22;62333;51.980;5.934;2023-07-13T10:21:56;23.00;70.90
38480;DHT22;62333;51.980;5.934;2023-07-13T10:24:32;23.30;70.90
38480;DHT22;62333;51.980;5.934;2023-07-13T10:32:16;23.90;67.90
38480;DHT22;62333;51.980;5.934;2023-07-13T10:34:45;24.10;67.00
38480;DHT22;62333;51.980;5.934;2023-07-13T10:37:28;24.20;66.40
38480;DHT22;62333;51.980;5.934;2023-07-13T10:39:57;24.40;65.00
38480;DHT22;62333;51.980;5.934;2023-07-13T10:42:49;24.40;64.30
38480;DHT22;62333;51.980;5.934;2023-07-13T10:45:20;24.30;64.00
38480;DHT22;62333;51.980;5.934;2023-07-13T10:47:47;24.30;62.80
38480;DHT22;62333;51.980;5.934;2023-07-13T10:50:25;24.20;62.80
38480;DHT22;62333;51.980;5.934;2023-07-13T10:53:01;24.20;63.20
38480;DHT22;62333;51.980;5.934;2023-07-13T10:58:33;23.90;67.80
38480;DHT22;62333;51.980;5.934;2023-07-13T11:03:33;23.70;70.90
38480;DHT22;62333;51.980;5.934;2023-07-13T11:18:53;25.30;67.20
38480;DHT22;62333;51.980;5.934;2023-07-13T11:21:33;25.70;67.10
38480;DHT22;62333;51.980;5.934;2023-07-13T11:24:03;26.20;65.50
38480;DHT22;62333;51.980;5.934;2023-07-13T11:32:00;26.70;57.90
38480;DHT22;62333;51.980;5.934;2023-07-13T11:34:30;26.60;58.90
38480;DHT22;62333;51.980;5.934;2023-07-13T11:36:59;26.30;59.80
38480;DHT22;62333;51.980;5.934;2023-07-13T11:39:29;26.10;60.40
38480;DHT22;62333;51.980;5.934;2023-07-13T11:42:05;26.10;61.10
38480;DHT22;62333;51.980;5.934;2023-07-13T11:44:33;26.30;61.20
38480;DHT22;62333;51.980;5.934;2023-07-13T11:47:07;26.70;60.00
38480;DHT22;62333;51.980;5.934;2023-07-13T11:49:42;27.20;58.80
38480;DHT22;62333;51.980;5.934;2023-07-13T11:52:13;28.00;54.80
38480;DHT22;62333;51.980;5.934;2023-07-13T11:54:52;28.80;53.40
38480;DHT22;62333;51.980;5.934;2023-07-13T11:57:32;29.50;51.20
38480;DHT22;62333;51.980;5.934;2023-07-13T12:00:02;30.20;49.00
38480;DHT22;62333;51.980;5.934;2023-07-13T12:02:43;30.90;47.70
38480;DHT22;62333;51.980;5.934;2023-07-13T12:05:15;31.40;46.60
38480;DHT22;62333;51.980;5.934;2023-07-13T12:07:41;31.30;46.30
38480;DHT22;62333;51.980;5.934;2023-07-13T12:12:36;30.30;47.00
38480;DHT22;62333;51.980;5.934;2023-07-13T12:15:06;29.70;48.20
38480;DHT22;62333;51.980;5.934;2023-07-13T12:17:34;29.20;49.50
38480;DHT22;62333;51.980;5.934;2023-07-13T12:20:03;28.60;50.40
38480;DHT22;62333;51.980;5.934;2023-07-13T12:22:32;28.20;51.60
38480;DHT22;62333;51.980;5.934;2023-07-13T12:24:59;28.10;52.40
38480;DHT22;62333;51.980;5.934;2023-07-13T12:27:27;28.30;52.20
38480;DHT22;62333;51.980;5.934;2023-07-13T12:32:21;29.40;51.20
38480;DHT22;62333;51.980;5.934;2023-07-13T12:35:13;30.20;50.20
38480;DHT22;62333;51.980;5.934;2023-07-13T12:37:42;31.00;48.90
38480;DHT22;62333;51.980;5.934;2023-07-13T12:40:19;31.90;47.80
38480;DHT22;62333;51.980;5.934;2023-07-13T12:42:47;32.60;45.50
38480;DHT22;62333;51.980;5.934;2023-07-13T12:45:24;33.10;44.70
38480;DHT22;62333;51.980;5.934;2023-07-13T12:47:55;33.10;43.90
38480;DHT22;62333;51.980;5.934;2023-07-13T12:50:30;32.80;44.00
38480;DHT22;62333;51.980;5.934;2023-07-13T12:53:02;32.40;44.40
38480;DHT22;62333;51.980;5.934;2023-07-13T12:55:29;31.80;45.30
38480;DHT22;62333;51.980;5.934;2023-07-13T12:57:59;31.30;45.70
38480;DHT22;62333;51.980;5.934;2023-07-13T13:00:30;30.90;46.10
38480;DHT22;62333;51.980;5.934;2023-07-13T13:03:02;30.40;46.70
38480;DHT22;62333;51.980;5.934;2023-07-13T13:05:30;29.90;47.30
38480;DHT22;62333;51.980;5.934;2023-07-13T13:07:56;29.50;47.90
38480;DHT22;62333;51.980;5.934;2023-07-13T13:10:23;29.20;48.10
38480;DHT22;62333;51.980;5.934;2023-07-13T13:12:49;28.80;48.40
38480;DHT22;62333;51.980;5.934;2023-07-13T13:15:15;28.50;48.60
38480;DHT22;62333;51.980;5.934;2023-07-13T13:17:41;28.30;49.10
38480;DHT22;62333;51.980;5.934;2023-07-13T13:20:18;28.10;49.60
38480;DHT22;62333;51.980;5.934;2023-07-13T13:22:44;28.00;49.90
38480;DHT22;62333;51.980;5.934;2023-07-13T13:25:14;27.90;50.20
38480;DHT22;62333;51.980;5.934;2023-07-13T13:27:44;27.70;50.50
38480;DHT22;62333;51.980;5.934;2023-07-13T13:30:15;27.70;51.00
38480;DHT22;62333;51.980;5.934;2023-07-13T13:32:45;27.70;51.30
38480;DHT22;62333;51.980;5.934;2023-07-13T13:35:19;27.70;51.60
38480;DHT22;62333;51.980;5.934;2023-07-13T13:37:46;27.80;52.00
38480;DHT22;62333;51.980;5.934;2023-07-13T13:40:21;27.90;51.60
38480;DHT22;62333;51.980;5.934;2023-07-13T13:42:50;27.90;49.70
38480;DHT22;62333;51.980;5.934;2023-07-13T13:45:18;28.00;49.80
38480;DHT22;62333;51.980;5.934;2023-07-13T13:47:44;28.20;50.30
38480;DHT22;62333;51.980;5.934;2023-07-13T13:52:40;28.80;50.40
38480;DHT22;62333;51.980;5.934;2023-07-13T13:55:20;29.00;50.30
38480;DHT22;62333;51.980;5.934;2023-07-13T13:57:46;29.30;50.10
38480;DHT22;62333;51.980;5.934;2023-07-13T14:00:13;29.50;48.00
38480;DHT22;62333;51.980;5.934;2023-07-13T14:02:41;29.40;46.20
38480;DHT22;62333;51.980;5.934;2023-07-13T14:05:13;29.20;46.30
38480;DHT22;62333;51.980;5.934;2023-07-13T14:07:39;28.90;45.50
38480;DHT22;62333;51.980;5.934;2023-07-13T14:10:14;28.60;45.90
38480;DHT22;62333;51.980;5.934;2023-07-13T14:12:41;28.40;46.90
38480;DHT22;62333;51.980;5.934;2023-07-13T14:15:24;28.10;46.50
38480;DHT22;62333;51.980;5.934;2023-07-13T14:17:50;27.90;47.00
38480;DHT22;62333;51.980;5.934;2023-07-13T14:20:20;27.70;46.40
38480;DHT22;62333;51.980;5.934;2023-07-13T14:22:47;27.50;46.90
38480;DHT22;62333;51.980;5.934;2023-07-13T14:25:15;27.30;47.60
38480;DHT22;62333;51.980;5.934;2023-07-13T14:27:43;27.10;48.00
38480;DHT22;62333;51.980;5.934;2023-07-13T14:30:21;27.00;48.00
38480;DHT22;62333;51.980;5.934;2023-07-13T14:32:47;26.90;48.40
38480;DHT22;62333;51.980;5.934;2023-07-13T14:35:15;26.80;48.50
38480;DHT22;62333;51.980;5.934;2023-07-13T14:37:42;26.80;49.00
38480;DHT22;62333;51.980;5.934;2023-07-13T14:40:24;26.70;48.80
38480;DHT22;62333;51.980;5.934;2023-07-13T14:42:50;26.50;49.00
38480;DHT22;62333;51.980;5.934;2023-07-13T14:45:18;26.40;49.20
38480;DHT22;62333;51.980;5.934;2023-07-13T14:47:45;26.40;49.20
38480;DHT22;62333;51.980;5.934;2023-07-13T14:50:24;26.30;49.30
38480;DHT22;62333;51.980;5.934;2023-07-13T14:52:51;26.30;49.30
38480;DHT22;62333;51.980;5.934;2023-07-13T14:55:18;26.10;49.10
38480;DHT22;62333;51.980;5.934;2023-07-13T14:57:45;26.10;49.40
38480;DHT22;62333;51.980;5.934;2023-07-13T15:00:19;26.00;49.40
38480;DHT22;62333;51.980;5.934;2023-07-13T15:02:50;25.90;49.50
38480;DHT22;62333;51.980;5.934;2023-07-13T15:05:19;25.80;49.70
38480;DHT22;62333;51.980;5.934;2023-07-13T15:07:45;25.70;49.90
38480;DHT22;62333;51.980;5.934;2023-07-13T15:12:44;25.50;50.30
38480;DHT22;62333;51.980;5.934;2023-07-13T15:15:10;25.50;50.50
38480;DHT22;62333;51.980;5.934;2023-07-13T15:17:38;25.40;50.60
38480;DHT22;62333;51.980;5.934;2023-07-13T15:22:56;25.40;51.00
38480;DHT22;62333;51.980;5.934;2023-07-13T15:25:26;25.30;50.80
38480;DHT22;62333;51.980;5.934;2023-07-13T15:27:54;25.20;50.50
38480;DHT22;62333;51.980;5.934;2023-07-13T15:30:20;25.20;50.70
38480;DHT22;62333;51.980;5.934;2023-07-13T15:32:47;25.00;50.80
38480;DHT22;62333;51.980;5.934;2023-07-13T15:35:24;25.00;51.10
38480;DHT22;62333;51.980;5.934;2023-07-13T15:37:50;25.00;51.40
38480;DHT22;62333;51.980;5.934;2023-07-13T15:40:17;24.90;51.60
38480;DHT22;62333;51.980;5.934;2023-07-13T15:42:44;24.80;51.90
38480;DHT22;62333;51.980;5.934;2023-07-13T15:45:21;24.80;52.20
38480;DHT22;62333;51.980;5.934;2023-07-13T15:47:48;24.70;52.40
38480;DHT22;62333;51.980;5.934;2023-07-13T15:50:16;24.60;53.20
38480;DHT22;62333;51.980;5.934;2023-07-13T15:52:44;24.60;52.90
38480;DHT22;62333;51.980;5.934;2023-07-13T15:55:12;24.50;53.30
38480;DHT22;62333;51.980;5.934;2023-07-13T15:57:44;24.50;53.40
38480;DHT22;62333;51.980;5.934;2023-07-13T16:00:22;24.50;53.50
38480;DHT22;62333;51.980;5.934;2023-07-13T16:02:49;24.40;53.60
38480;DHT22;62333;51.980;5.934;2023-07-13T16:05:16;24.30;55.20
38480;DHT22;62333;51.980;5.934;2023-07-13T16:07:46;24.10;55.90
38480;DHT22;62333;51.980;5.934;2023-07-13T16:10:22;24.00;56.30
38480;DHT22;62333;51.980;5.934;2023-07-13T16:12:50;24.00;56.60
38480;DHT22;62333;51.980;5.934;2023-07-13T16:15:19;24.00;56.50
38480;DHT22;62333;51.980;5.934;2023-07-13T16:17:48;23.90;56.00
38480;DHT22;62333;51.980;5.934;2023-07-13T16:20:15;23.90;55.90
38480;DHT22;62333;51.980;5.934;2023-07-13T16:22:46;23.90;55.50
38480;DHT22;62333;51.980;5.934;2023-07-13T16:25:22;23.90;55.20
38480;DHT22;62333;51.980;5.934;2023-07-13T16:27:50;23.90;55.10
38480;DHT22;62333;51.980;5.934;2023-07-13T16:30:21;23.90;55.20
38480;DHT22;62333;51.980;5.934;2023-07-13T16:32:50;24.00;55.30
38480;DHT22;62333;51.980;5.934;2023-07-13T16:35:24;23.90;55.40